THY8FW LTFM-LGAV
Flight info
| Callsign | THY8FW |
|---|---|
| Flight time | 0h 56m |
| Altitude | 30000 |
| Route | IVGUS1E/36 IVGUS UY226 BIG UN604 SOSIR N604 OGSIL |
| Aircraft | B77W/H-SDE1E2E3FGHIJ2J3J4J5M1RWXY/LB1D1 |
Departure
| Time | 2026-05-04 12:14 |
|---|---|
| Airport | İstanbul Airport (LTFM) |
Arrival
| Time | 2026-05-04 13:11 |
|---|---|
| Airport | Athens Eleftherios Venizelos International Airport (LGAV) |
| Time | Latitude | Longitude | Altitude | Speed | Heading |
|---|---|---|---|---|---|
| 2026-05-04 11:37 | 41.26482 | 28.74378 | 339 ft | 0 kts | 271° |
| 2026-05-04 11:38 | 41.26483 | 28.74370 | 334 ft | 0 kts | 269° |
| 2026-05-04 11:41 | 41.26482 | 28.74378 | 334 ft | 22 kts | 271° |
| 2026-05-04 11:41 | 41.26483 | 28.74370 | 339 ft | 0 kts | 269° |
| 2026-05-04 12:03 | 41.26483 | 28.74376 | 333 ft | 2 kts | 266° |
| 2026-05-04 12:03 | 41.26486 | 28.74399 | 333 ft | 3 kts | 236° |
| 2026-05-04 12:03 | 41.26499 | 28.74420 | 333 ft | 3 kts | 236° |
| 2026-05-04 12:04 | 41.26508 | 28.74440 | 333 ft | 3 kts | 259° |
| 2026-05-04 12:04 | 41.26508 | 28.74461 | 333 ft | 3 kts | 313° |
| 2026-05-04 12:04 | 41.26493 | 28.74473 | 333 ft | 2 kts | 353° |
| 2026-05-04 12:04 | 41.26482 | 28.74474 | 333 ft | 2 kts | 359° |
| 2026-05-04 12:05 | 41.26473 | 28.74475 | 333 ft | 0 kts | 359° |
| 2026-05-04 12:07 | 41.26480 | 28.74474 | 333 ft | 2 kts | 359° |
| 2026-05-04 12:07 | 41.26516 | 28.74473 | 333 ft | 8 kts | 359° |
| 2026-05-04 12:08 | 41.26596 | 28.74472 | 335 ft | 14 kts | 359° |
| 2026-05-04 12:08 | 41.26700 | 28.74469 | 334 ft | 15 kts | 359° |
| 2026-05-04 12:08 | 41.26804 | 28.74466 | 337 ft | 15 kts | 358° |
| 2026-05-04 12:08 | 41.26907 | 28.74463 | 334 ft | 14 kts | 359° |
| 2026-05-04 12:09 | 41.26965 | 28.74484 | 335 ft | 8 kts | 56° |
| 2026-05-04 12:09 | 41.26972 | 28.74556 | 335 ft | 8 kts | 88° |
| 2026-05-04 12:09 | 41.26974 | 28.74640 | 334 ft | 12 kts | 88° |
| 2026-05-04 12:09 | 41.26976 | 28.74780 | 338 ft | 18 kts | 89° |
| 2026-05-04 12:10 | 41.26979 | 28.74955 | 337 ft | 19 kts | 90° |
| 2026-05-04 12:10 | 41.26980 | 28.75134 | 338 ft | 19 kts | 89° |
| 2026-05-04 12:10 | 41.26982 | 28.75295 | 336 ft | 14 kts | 89° |
| 2026-05-04 12:10 | 41.26949 | 28.75371 | 334 ft | 10 kts | 165° |
| 2026-05-04 12:11 | 41.26876 | 28.75377 | 335 ft | 11 kts | 178° |
| 2026-05-04 12:11 | 41.26800 | 28.75378 | 335 ft | 11 kts | 180° |
| 2026-05-04 12:11 | 41.26724 | 28.75380 | 334 ft | 11 kts | 179° |
| 2026-05-04 12:11 | 41.26632 | 28.75382 | 335 ft | 18 kts | 179° |
| 2026-05-04 12:12 | 41.26510 | 28.75385 | 334 ft | 17 kts | 179° |
| 2026-05-04 12:12 | 41.26428 | 28.75433 | 335 ft | 14 kts | 105° |
| 2026-05-04 12:12 | 41.26423 | 28.75557 | 335 ft | 14 kts | 88° |
| 2026-05-04 12:12 | 41.26444 | 28.75655 | 334 ft | 10 kts | 25° |
| 2026-05-04 12:13 | 41.26481 | 28.75657 | 337 ft | 0 kts | 0° |
| 2026-05-04 12:14 | 41.32544 | 28.78055 | 3214 ft | 212 kts | 28° |
| 2026-05-04 12:15 | 41.33903 | 28.79106 | 3670 ft | 235 kts | 27° |
| 2026-05-04 12:15 | 41.35313 | 28.80202 | 4723 ft | 234 kts | 27° |
| 2026-05-04 12:15 | 41.36737 | 28.81317 | 5554 ft | 242 kts | 30° |
| 2026-05-04 12:15 | 41.37938 | 28.82968 | 6281 ft | 262 kts | 57° |
| 2026-05-04 12:16 | 41.38363 | 28.85388 | 7143 ft | 277 kts | 82° |
| 2026-05-04 12:16 | 41.38353 | 28.87958 | 8030 ft | 281 kts | 83° |
| 2026-05-04 12:16 | 41.38296 | 28.90576 | 8838 ft | 289 kts | 93° |
| 2026-05-04 12:16 | 41.37476 | 28.93157 | 9347 ft | 320 kts | 126° |
| 2026-05-04 12:17 | 41.35710 | 28.94908 | 10284 ft | 327 kts | 157° |
| 2026-05-04 12:17 | 41.33407 | 28.95463 | 10788 ft | 346 kts | 183° |
| 2026-05-04 12:17 | 41.30966 | 28.95118 | 11035 ft | 370 kts | 189° |
| 2026-05-04 12:17 | 41.28361 | 28.94564 | 11506 ft | 385 kts | 194° |
| 2026-05-04 12:18 | 41.25862 | 28.93151 | 11984 ft | 399 kts | 217° |
| 2026-05-04 12:18 | 41.23848 | 28.90618 | 12889 ft | 398 kts | 235° |
| 2026-05-04 12:18 | 41.22109 | 28.87722 | 13751 ft | 407 kts | 235° |
| 2026-05-04 12:18 | 41.20308 | 28.84756 | 14594 ft | 414 kts | 234° |
| 2026-05-04 12:19 | 41.18476 | 28.81792 | 15743 ft | 415 kts | 233° |
| 2026-05-04 12:19 | 41.16623 | 28.78827 | 16754 ft | 421 kts | 233° |
| 2026-05-04 12:19 | 41.14750 | 28.75851 | 17628 ft | 428 kts | 233° |
| 2026-05-04 12:19 | 41.12829 | 28.72813 | 18589 ft | 433 kts | 232° |
| 2026-05-04 12:20 | 41.10876 | 28.69733 | 19385 ft | 440 kts | 232° |
| 2026-05-04 12:20 | 41.08887 | 28.66600 | 20159 ft | 447 kts | 232° |
| 2026-05-04 12:20 | 41.06870 | 28.63425 | 20946 ft | 453 kts | 232° |
| 2026-05-04 12:20 | 41.04837 | 28.60228 | 21729 ft | 459 kts | 232° |
| 2026-05-04 12:21 | 41.02758 | 28.56961 | 22458 ft | 466 kts | 231° |
| 2026-05-04 12:21 | 41.01365 | 28.54774 | 22926 ft | 471 kts | 231° |
| 2026-05-04 12:21 | 40.99236 | 28.51433 | 23640 ft | 478 kts | 231° |
| 2026-05-04 12:21 | 40.96356 | 28.46921 | 24173 ft | 485 kts | 231° |
| 2026-05-04 12:22 | 40.94194 | 28.43537 | 24817 ft | 488 kts | 231° |
| 2026-05-04 12:22 | 40.91997 | 28.40104 | 25606 ft | 489 kts | 231° |
| 2026-05-04 12:22 | 40.89803 | 28.36679 | 26429 ft | 487 kts | 231° |
| 2026-05-04 12:22 | 40.87624 | 28.33280 | 27401 ft | 483 kts | 231° |
| 2026-05-04 12:23 | 40.86324 | 28.31255 | 27966 ft | 481 kts | 231° |
| 2026-05-04 12:23 | 40.84756 | 28.28813 | 28634 ft | 480 kts | 231° |
| 2026-05-04 12:23 | 40.82939 | 28.25987 | 29346 ft | 479 kts | 230° |
| 2026-05-04 12:23 | 40.80771 | 28.22616 | 29663 ft | 485 kts | 231° |
| 2026-05-04 12:24 | 40.76491 | 28.15973 | 29962 ft | 478 kts | 230° |
| 2026-05-04 12:24 | 40.72155 | 28.09257 | 30024 ft | 481 kts | 230° |
| 2026-05-04 12:25 | 40.67863 | 28.02623 | 30031 ft | 476 kts | 230° |
| 2026-05-04 12:25 | 40.63570 | 27.96006 | 30038 ft | 474 kts | 230° |
| 2026-05-04 12:26 | 40.59289 | 27.89419 | 30036 ft | 473 kts | 230° |
| 2026-05-04 12:26 | 40.54303 | 27.81765 | 30047 ft | 475 kts | 230° |
| 2026-05-04 12:27 | 40.50689 | 27.76228 | 30054 ft | 477 kts | 230° |
| 2026-05-04 12:27 | 40.46391 | 27.69659 | 30047 ft | 478 kts | 230° |
| 2026-05-04 12:28 | 40.42055 | 27.63028 | 30049 ft | 479 kts | 230° |
| 2026-05-04 12:28 | 40.37712 | 27.56401 | 30058 ft | 479 kts | 230° |
| 2026-05-04 12:29 | 40.33358 | 27.49791 | 30038 ft | 478 kts | 230° |
| 2026-05-04 12:29 | 40.29022 | 27.43227 | 30044 ft | 475 kts | 229° |
| 2026-05-04 12:30 | 40.24724 | 27.36732 | 30054 ft | 474 kts | 230° |
| 2026-05-04 12:30 | 40.20393 | 27.30226 | 30055 ft | 474 kts | 227° |
| 2026-05-04 12:31 | 40.15496 | 27.24486 | 30045 ft | 473 kts | 215° |
| 2026-05-04 12:31 | 40.10091 | 27.19584 | 30057 ft | 473 kts | 214° |
| 2026-05-04 12:32 | 40.02017 | 27.12253 | 30049 ft | 473 kts | 214° |
| 2026-05-04 12:33 | 39.96632 | 27.07319 | 30057 ft | 473 kts | 214° |
| 2026-05-04 12:33 | 39.91240 | 27.02382 | 30052 ft | 474 kts | 214° |
| 2026-05-04 12:34 | 39.85852 | 26.97459 | 30059 ft | 474 kts | 214° |
| 2026-05-04 12:34 | 39.80445 | 26.92529 | 30057 ft | 474 kts | 214° |
| 2026-05-04 12:35 | 39.75044 | 26.87616 | 30078 ft | 475 kts | 214° |
| 2026-05-04 12:35 | 39.69667 | 26.82741 | 30065 ft | 474 kts | 213° |
| 2026-05-04 12:36 | 39.64269 | 26.77857 | 30062 ft | 473 kts | 213° |
| 2026-05-04 12:36 | 39.58885 | 26.72988 | 30083 ft | 470 kts | 213° |
| 2026-05-04 12:37 | 39.53516 | 26.68149 | 30065 ft | 471 kts | 213° |
| 2026-05-04 12:37 | 39.48135 | 26.63304 | 30056 ft | 471 kts | 213° |
| 2026-05-04 12:38 | 39.42746 | 26.58460 | 30061 ft | 472 kts | 213° |
| 2026-05-04 12:38 | 39.37399 | 26.53661 | 30058 ft | 470 kts | 213° |
| 2026-05-04 12:39 | 39.32006 | 26.48954 | 30060 ft | 467 kts | 208° |
| 2026-05-04 12:39 | 39.26367 | 26.44833 | 30080 ft | 464 kts | 210° |
| 2026-05-04 12:40 | 39.21348 | 26.39593 | 30087 ft | 466 kts | 224° |
| 2026-05-04 12:40 | 39.17117 | 26.33290 | 30089 ft | 465 kts | 231° |
| 2026-05-04 12:41 | 39.13119 | 26.26790 | 30085 ft | 466 kts | 231° |
| 2026-05-04 12:41 | 39.09087 | 26.20257 | 30063 ft | 465 kts | 231° |
| 2026-05-04 12:42 | 39.04911 | 26.13908 | 30062 ft | 463 kts | 224° |
| 2026-05-04 12:42 | 39.00323 | 26.08113 | 30076 ft | 462 kts | 223° |
| 2026-05-04 12:43 | 38.95704 | 26.02370 | 30087 ft | 461 kts | 223° |
| 2026-05-04 12:43 | 38.91121 | 25.96617 | 30080 ft | 461 kts | 223° |
| 2026-05-04 12:44 | 38.86558 | 25.90856 | 30077 ft | 459 kts | 223° |
| 2026-05-04 12:44 | 38.82038 | 25.85146 | 30083 ft | 458 kts | 223° |
| 2026-05-04 12:45 | 38.77494 | 25.79420 | 30096 ft | 458 kts | 223° |
| 2026-05-04 12:45 | 38.72941 | 25.73694 | 30089 ft | 459 kts | 223° |
| 2026-05-04 12:46 | 38.68389 | 25.67981 | 30088 ft | 459 kts | 223° |
| 2026-05-04 12:46 | 38.63830 | 25.62268 | 30100 ft | 459 kts | 223° |
| 2026-05-04 12:47 | 38.59266 | 25.56562 | 30094 ft | 459 kts | 223° |
| 2026-05-04 12:47 | 38.54701 | 25.50867 | 30097 ft | 458 kts | 222° |
| 2026-05-04 12:48 | 38.50209 | 25.45272 | 30099 ft | 458 kts | 222° |
| 2026-05-04 12:48 | 38.45652 | 25.39607 | 30103 ft | 457 kts | 223° |
| 2026-05-04 12:49 | 38.41089 | 25.33943 | 30101 ft | 457 kts | 223° |
| 2026-05-04 12:49 | 38.36540 | 25.28307 | 30104 ft | 456 kts | 223° |
| 2026-05-04 12:50 | 38.32028 | 25.22728 | 30104 ft | 454 kts | 223° |
| 2026-05-04 12:50 | 38.27571 | 25.17227 | 30084 ft | 435 kts | 223° |
| 2026-05-04 12:50 | 38.25440 | 25.14599 | 30069 ft | 422 kts | 223° |
| 2026-05-04 12:51 | 38.23359 | 25.12035 | 29343 ft | 425 kts | 223° |
| 2026-05-04 12:51 | 38.21194 | 25.09372 | 28768 ft | 424 kts | 224° |
| 2026-05-04 12:51 | 38.19087 | 25.06782 | 28263 ft | 421 kts | 224° |
| 2026-05-04 12:51 | 38.16989 | 25.04205 | 27810 ft | 418 kts | 224° |
| 2026-05-04 12:52 | 38.14924 | 25.01671 | 27372 ft | 415 kts | 224° |
| 2026-05-04 12:52 | 38.12861 | 24.99144 | 26956 ft | 411 kts | 225° |
| 2026-05-04 12:52 | 38.10814 | 24.96636 | 26518 ft | 407 kts | 225° |
| 2026-05-04 12:52 | 38.08814 | 24.94185 | 26101 ft | 404 kts | 225° |
| 2026-05-04 12:53 | 38.06791 | 24.91710 | 25688 ft | 401 kts | 224° |
| 2026-05-04 12:53 | 38.04786 | 24.89258 | 25272 ft | 399 kts | 225° |
| 2026-05-04 12:53 | 38.02792 | 24.86822 | 24849 ft | 397 kts | 224° |
| 2026-05-04 12:53 | 38.00806 | 24.84396 | 24441 ft | 398 kts | 224° |
| 2026-05-04 12:54 | 37.98791 | 24.81931 | 24033 ft | 409 kts | 224° |
| 2026-05-04 12:54 | 37.96719 | 24.79392 | 23565 ft | 423 kts | 224° |
| 2026-05-04 12:54 | 37.94550 | 24.76750 | 23180 ft | 436 kts | 224° |
| 2026-05-04 12:54 | 37.92393 | 24.74132 | 22504 ft | 439 kts | 224° |
| 2026-05-04 12:55 | 37.90181 | 24.71450 | 21952 ft | 435 kts | 224° |
| 2026-05-04 12:55 | 37.88010 | 24.68821 | 21599 ft | 430 kts | 224° |
| 2026-05-04 12:55 | 37.85862 | 24.66219 | 21132 ft | 424 kts | 224° |
| 2026-05-04 12:55 | 37.83747 | 24.63657 | 20678 ft | 418 kts | 224° |
| 2026-05-04 12:56 | 37.81651 | 24.61117 | 20231 ft | 418 kts | 224° |
| 2026-05-04 12:56 | 37.79560 | 24.58580 | 19779 ft | 417 kts | 225° |
| 2026-05-04 12:56 | 37.77627 | 24.55857 | 19299 ft | 415 kts | 234° |
| 2026-05-04 12:56 | 37.76104 | 24.52792 | 18872 ft | 413 kts | 242° |
| 2026-05-04 12:57 | 37.74766 | 24.49559 | 18512 ft | 413 kts | 244° |
| 2026-05-04 12:57 | 37.73514 | 24.46394 | 18431 ft | 402 kts | 245° |
| 2026-05-04 12:57 | 37.72313 | 24.43341 | 18200 ft | 373 kts | 245° |
| 2026-05-04 12:57 | 37.71188 | 24.40482 | 17740 ft | 356 kts | 245° |
| 2026-05-04 12:58 | 37.70096 | 24.37703 | 17357 ft | 353 kts | 245° |
| 2026-05-04 12:58 | 37.69020 | 24.34943 | 17047 ft | 348 kts | 245° |
| 2026-05-04 12:58 | 37.67963 | 24.32227 | 16736 ft | 342 kts | 245° |
| 2026-05-04 12:58 | 37.66918 | 24.29553 | 16385 ft | 339 kts | 245° |
| 2026-05-04 12:59 | 37.65866 | 24.26879 | 15958 ft | 338 kts | 245° |
| 2026-05-04 12:59 | 37.64807 | 24.24243 | 15596 ft | 334 kts | 245° |
| 2026-05-04 12:59 | 37.63767 | 24.21690 | 14880 ft | 326 kts | 245° |
| 2026-05-04 12:59 | 37.62716 | 24.19146 | 14076 ft | 328 kts | 245° |
| 2026-05-04 13:00 | 37.61662 | 24.16631 | 13289 ft | 328 kts | 245° |
| 2026-05-04 13:00 | 37.60599 | 24.14115 | 12674 ft | 324 kts | 245° |
| 2026-05-04 13:00 | 37.59529 | 24.11602 | 12234 ft | 324 kts | 245° |
| 2026-05-04 13:00 | 37.58465 | 24.09121 | 11954 ft | 319 kts | 245° |
| 2026-05-04 13:01 | 37.57412 | 24.06673 | 11620 ft | 316 kts | 246° |
| 2026-05-04 13:01 | 37.56358 | 24.04260 | 11290 ft | 313 kts | 245° |
| 2026-05-04 13:01 | 37.55336 | 24.01858 | 10906 ft | 305 kts | 251° |
| 2026-05-04 13:01 | 37.54865 | 23.99291 | 10386 ft | 301 kts | 270° |
| 2026-05-04 13:02 | 37.54800 | 23.96705 | 10059 ft | 297 kts | 274° |
| 2026-05-04 13:02 | 37.54810 | 23.94128 | 9742 ft | 293 kts | 275° |
| 2026-05-04 13:02 | 37.54909 | 23.91605 | 9388 ft | 282 kts | 285° |
| 2026-05-04 13:02 | 37.55608 | 23.89360 | 9112 ft | 271 kts | 301° |
| 2026-05-04 13:03 | 37.56550 | 23.87343 | 8879 ft | 264 kts | 304° |
| 2026-05-04 13:03 | 37.57523 | 23.85387 | 8573 ft | 262 kts | 304° |
| 2026-05-04 13:03 | 37.58495 | 23.83452 | 8238 ft | 261 kts | 304° |
| 2026-05-04 13:03 | 37.59465 | 23.81533 | 7893 ft | 257 kts | 304° |
| 2026-05-04 13:04 | 37.60426 | 23.79647 | 7511 ft | 259 kts | 304° |
| 2026-05-04 13:04 | 37.61400 | 23.77749 | 7216 ft | 257 kts | 305° |
| 2026-05-04 13:04 | 37.62371 | 23.75872 | 6934 ft | 255 kts | 305° |
| 2026-05-04 13:04 | 37.63477 | 23.74155 | 6550 ft | 251 kts | 322° |
| 2026-05-04 13:05 | 37.65073 | 23.73286 | 6183 ft | 253 kts | 347° |
| 2026-05-04 13:05 | 37.66836 | 23.73063 | 5837 ft | 255 kts | 354° |
| 2026-05-04 13:05 | 37.68568 | 23.72978 | 5741 ft | 243 kts | 359° |
| 2026-05-04 13:05 | 37.70176 | 23.73499 | 5564 ft | 242 kts | 25° |
| 2026-05-04 13:06 | 37.71570 | 23.74653 | 5395 ft | 237 kts | 30° |
| 2026-05-04 13:06 | 37.72910 | 23.75862 | 5102 ft | 238 kts | 32° |
| 2026-05-04 13:06 | 37.74225 | 23.77095 | 4783 ft | 238 kts | 33° |
| 2026-05-04 13:06 | 37.75544 | 23.78347 | 4473 ft | 237 kts | 33° |
| 2026-05-04 13:07 | 37.76865 | 23.79602 | 4153 ft | 237 kts | 33° |
| 2026-05-04 13:07 | 37.78185 | 23.80856 | 3857 ft | 236 kts | 34° |
| 2026-05-04 13:07 | 37.79490 | 23.82097 | 3531 ft | 235 kts | 34° |
| 2026-05-04 13:07 | 37.80761 | 23.83305 | 3184 ft | 221 kts | 33° |
| 2026-05-04 13:08 | 37.81943 | 23.84432 | 2909 ft | 205 kts | 33° |
| 2026-05-04 13:08 | 37.83049 | 23.85480 | 2629 ft | 195 kts | 33° |
| 2026-05-04 13:08 | 37.84121 | 23.86499 | 2384 ft | 189 kts | 33° |
| 2026-05-04 13:08 | 37.85115 | 23.87445 | 2150 ft | 175 kts | 34° |
| 2026-05-04 13:09 | 37.86045 | 23.88330 | 1911 ft | 161 kts | 33° |
| 2026-05-04 13:09 | 37.86923 | 23.89164 | 1724 ft | 157 kts | 32° |
| 2026-05-04 13:09 | 37.87806 | 23.90003 | 1480 ft | 158 kts | 35° |
| 2026-05-04 13:09 | 37.88668 | 23.90828 | 1294 ft | 153 kts | 31° |
| 2026-05-04 13:10 | 37.89506 | 23.91620 | 1092 ft | 148 kts | 35° |
| 2026-05-04 13:10 | 37.90322 | 23.92395 | 811 ft | 146 kts | 37° |
| 2026-05-04 13:10 | 37.91121 | 23.93157 | 680 ft | 144 kts | 40° |
| 2026-05-04 13:10 | 37.91918 | 23.93908 | 474 ft | 150 kts | 39° |
| 2026-05-04 13:11 | 37.92765 | 23.94716 | 319 ft | 148 kts | 40° |
| 2026-05-04 13:11 | 37.93509 | 23.95424 | 289 ft | 114 kts | 36° |
| 2026-05-04 13:11 | 37.93996 | 23.95892 | 286 ft | 47 kts | 37° |
| 2026-05-04 13:11 | 37.94241 | 23.96009 | 296 ft | 22 kts | 9° |
| 2026-05-04 13:12 | 37.94329 | 23.95963 | 305 ft | 14 kts | 281° |
| 2026-05-04 13:12 | 37.94271 | 23.95872 | 307 ft | 14 kts | 218° |
| 2026-05-04 13:12 | 37.94194 | 23.95796 | 304 ft | 14 kts | 217° |
| 2026-05-04 13:12 | 37.94115 | 23.95721 | 306 ft | 14 kts | 217° |
| 2026-05-04 13:13 | 37.94035 | 23.95646 | 303 ft | 14 kts | 217° |
| 2026-05-04 13:13 | 37.93954 | 23.95569 | 305 ft | 15 kts | 217° |
| 2026-05-04 13:13 | 37.93880 | 23.95499 | 304 ft | 10 kts | 217° |
| 2026-05-04 13:13 | 37.93821 | 23.95444 | 304 ft | 11 kts | 217° |
| 2026-05-04 13:14 | 37.93762 | 23.95387 | 305 ft | 11 kts | 217° |
| 2026-05-04 13:14 | 37.93690 | 23.95320 | 306 ft | 16 kts | 217° |
| 2026-05-04 13:14 | 37.93599 | 23.95233 | 306 ft | 16 kts | 218° |
| 2026-05-04 13:14 | 37.93509 | 23.95145 | 305 ft | 16 kts | 217° |
| 2026-05-04 13:15 | 37.93444 | 23.95085 | 305 ft | 9 kts | 216° |
| 2026-05-04 13:15 | 37.93397 | 23.95037 | 306 ft | 8 kts | 231° |
| 2026-05-04 13:15 | 37.93398 | 23.94970 | 308 ft | 8 kts | 292° |
| 2026-05-04 13:15 | 37.93424 | 23.94907 | 309 ft | 8 kts | 301° |
| 2026-05-04 13:16 | 37.93443 | 23.94841 | 307 ft | 7 kts | 267° |
| 2026-05-04 13:16 | 37.93426 | 23.94781 | 307 ft | 8 kts | 270° |
| 2026-05-04 13:16 | 37.93449 | 23.94724 | 308 ft | 6 kts | 303° |
| 2026-05-04 13:16 | 37.93460 | 23.94704 | 308 ft | 1 kts | 305° |
| 2026-05-04 13:17 | 37.93462 | 23.94701 | 308 ft | 0 kts | 305° |